createdAt,value
2022-12-23T00:01:16.780Z,2.70
2022-12-23T00:04:19.710Z,1.40
2022-12-23T00:07:22.555Z,2.40
2022-12-23T00:10:25.335Z,2.00
2022-12-23T00:13:47.049Z,1.30
2022-12-23T00:16:50.855Z,2.00
2022-12-23T00:19:54.111Z,1.50
2022-12-23T00:23:05.976Z,2.10
2022-12-23T00:26:16.676Z,2.50
2022-12-23T00:29:19.447Z,2.20
2022-12-23T00:32:22.268Z,1.90
2022-12-23T00:35:25.118Z,2.00
2022-12-23T00:38:47.183Z,1.10
2022-12-23T00:42:08.503Z,1.80
2022-12-23T00:45:17.388Z,1.40
2022-12-23T00:48:38.725Z,2.30
2022-12-23T00:51:41.587Z,1.90
2022-12-23T00:54:44.570Z,2.20
2022-12-23T00:57:47.491Z,2.20
2022-12-23T01:01:08.976Z,2.70
2022-12-23T01:04:33.129Z,2.80
2022-12-23T01:07:35.912Z,1.80
2022-12-23T01:10:40.123Z,2.40
2022-12-23T01:13:42.970Z,1.90
2022-12-23T01:16:46.375Z,2.10
2022-12-23T01:19:49.240Z,3.40
2022-12-23T01:22:51.968Z,2.60
2022-12-23T01:26:04.741Z,3.00
2022-12-23T01:29:07.601Z,2.90
2022-12-23T01:32:10.546Z,2.60
2022-12-23T01:35:13.441Z,3.20
2022-12-23T01:38:16.265Z,1.60
2022-12-23T01:41:49.657Z,2.30
2022-12-23T01:45:18.628Z,1.40
2022-12-23T01:48:27.341Z,2.30
2022-12-23T01:51:30.372Z,2.10
2022-12-23T01:54:34.517Z,1.90
2022-12-23T01:57:41.289Z,1.90
2022-12-23T02:01:02.878Z,2.20
2022-12-23T02:04:10.238Z,2.20
2022-12-23T02:07:32.790Z,2.10
2022-12-23T02:11:00.798Z,2.00
2022-12-23T02:14:59.977Z,2.20
2022-12-23T02:18:21.238Z,2.60
2022-12-23T02:21:36.392Z,3.20
2022-12-23T02:25:04.310Z,2.40
2022-12-23T02:28:46.087Z,2.70
2022-12-23T02:32:06.990Z,2.10
2022-12-23T02:35:14.736Z,2.00
2022-12-23T02:38:43.694Z,2.30
2022-12-23T02:41:49.223Z,3.40
2022-12-23T02:45:04.354Z,2.40
2022-12-23T02:48:19.127Z,1.70
2022-12-23T02:51:29.019Z,1.80
2022-12-23T02:54:38.836Z,2.80
2022-12-23T02:57:47.055Z,2.30
2022-12-23T03:00:50.073Z,2.10
2022-12-23T03:03:53.141Z,2.50
2022-12-23T03:07:01.694Z,1.60
2022-12-23T03:10:55.774Z,1.40
2022-12-23T03:14:14.016Z,1.10
2022-12-23T03:17:25.657Z,2.40
2022-12-23T03:21:02.714Z,1.70
2022-12-23T03:24:22.966Z,2.00
2022-12-23T03:27:30.448Z,2.00
2022-12-23T03:30:35.594Z,1.50
2022-12-23T03:33:42.604Z,2.50
2022-12-23T03:36:59.061Z,1.90
2022-12-23T03:40:08.620Z,3.30
2022-12-23T03:43:18.795Z,4.00
2022-12-23T03:46:31.445Z,3.20
2022-12-23T03:49:43.960Z,4.70
2022-12-23T03:53:01.355Z,5.90
2022-12-23T03:56:09.543Z,3.90
2022-12-23T03:59:18.857Z,3.60
2022-12-23T04:02:40.262Z,4.90
2022-12-23T04:05:50.613Z,3.10
2022-12-23T04:08:54.140Z,2.80
2022-12-23T04:11:58.355Z,2.70
2022-12-23T04:15:01.294Z,2.40
2022-12-23T04:18:04.154Z,2.90
2022-12-23T04:21:06.964Z,2.60
2022-12-23T04:24:09.769Z,3.30
2022-12-23T04:27:14.839Z,4.10
2022-12-23T04:30:18.683Z,3.50
2022-12-23T04:33:21.563Z,3.10
2022-12-23T04:36:24.387Z,2.80
2022-12-23T04:39:27.265Z,3.40
2022-12-23T04:42:30.153Z,2.90
2022-12-23T04:45:33.365Z,2.80
2022-12-23T04:48:36.174Z,1.80
2022-12-23T04:51:38.964Z,3.80
2022-12-23T04:54:45.987Z,3.40
2022-12-23T04:57:49.224Z,3.40
2022-12-23T05:01:07.368Z,3.20
2022-12-23T05:07:13.533Z,3.30
2022-12-23T05:10:16.477Z,2.10
2022-12-23T05:13:19.328Z,3.50
2022-12-23T05:16:22.194Z,2.60
2022-12-23T05:19:25.085Z,3.50
2022-12-23T05:22:27.946Z,2.50
2022-12-23T05:25:32.647Z,3.40
2022-12-23T05:28:35.757Z,3.70
2022-12-23T05:31:38.674Z,3.90
2022-12-23T05:34:41.536Z,3.30
2022-12-23T05:37:44.347Z,3.00
2022-12-23T05:40:48.239Z,2.90
2022-12-23T05:43:51.084Z,3.30
2022-12-23T05:46:53.964Z,2.20
2022-12-23T05:49:56.769Z,3.20
2022-12-23T05:52:59.594Z,3.90
2022-12-23T05:56:06.518Z,3.70
2022-12-23T05:59:09.500Z,1.80
2022-12-23T06:02:12.445Z,1.80
2022-12-23T06:05:15.373Z,2.30
2022-12-23T06:08:18.396Z,2.80
2022-12-23T06:11:21.445Z,2.90
2022-12-23T06:14:28.874Z,3.40
2022-12-23T06:17:32.532Z,3.50
2022-12-23T06:20:35.423Z,2.50
2022-12-23T06:23:38.208Z,2.90
2022-12-23T06:26:42.680Z,1.90
2022-12-23T06:29:45.665Z,3.00
2022-12-23T06:32:48.521Z,2.20
2022-12-23T06:35:51.313Z,2.20
2022-12-23T06:38:54.163Z,2.10
2022-12-23T06:41:57.031Z,1.80
2022-12-23T06:44:59.807Z,2.20
2022-12-23T06:48:02.678Z,2.40
2022-12-23T06:51:05.694Z,1.70
2022-12-23T06:54:11.931Z,2.50
2022-12-23T07:00:17.707Z,2.00
2022-12-23T07:03:20.544Z,2.00
2022-12-23T07:06:23.496Z,2.10
2022-12-23T07:09:26.507Z,2.80
2022-12-23T07:12:29.422Z,3.00
2022-12-23T07:15:32.275Z,2.50
2022-12-23T07:18:35.510Z,2.60
2022-12-23T07:21:38.837Z,2.60
2022-12-23T07:24:41.625Z,3.40
2022-12-23T07:27:44.535Z,5.30
2022-12-23T07:30:47.526Z,3.30
2022-12-23T07:33:50.391Z,3.40
2022-12-23T07:36:54.005Z,2.60
2022-12-23T07:39:56.827Z,1.70
2022-12-23T07:42:59.916Z,1.90
2022-12-23T07:46:07.595Z,2.10
2022-12-23T07:49:10.579Z,2.20
2022-12-23T07:52:13.382Z,1.30
2022-12-23T07:55:16.470Z,2.20
2022-12-23T07:58:19.639Z,1.60
2022-12-23T08:01:23.048Z,1.30
2022-12-23T08:04:25.939Z,1.70
2022-12-23T08:07:28.849Z,1.90
2022-12-23T08:10:31.653Z,2.00
2022-12-23T08:13:37.604Z,2.30
2022-12-23T08:16:44.019Z,2.00
2022-12-23T08:19:48.594Z,2.10
2022-12-23T08:22:51.524Z,1.90
2022-12-23T08:26:03.845Z,2.20
2022-12-23T08:29:06.732Z,2.40
2022-12-23T08:32:09.718Z,2.00
2022-12-23T08:35:12.474Z,2.50
2022-12-23T08:38:15.265Z,2.40
2022-12-23T08:41:22.154Z,2.10
2022-12-23T08:44:29.970Z,2.50
2022-12-23T08:47:33.688Z,2.00
2022-12-23T08:50:38.570Z,1.90
2022-12-23T08:53:41.725Z,3.10
2022-12-23T08:56:44.897Z,3.90
2022-12-23T08:59:47.919Z,3.20
2022-12-23T09:02:51.026Z,3.50
2022-12-23T09:05:54.119Z,3.60
2022-12-23T09:08:57.655Z,5.00
2022-12-23T09:12:00.414Z,4.00
2022-12-23T09:15:03.569Z,2.50
2022-12-23T09:18:06.374Z,2.50
2022-12-23T09:21:15.087Z,2.70
2022-12-23T09:24:18.022Z,1.50
2022-12-23T09:27:20.852Z,1.70
2022-12-23T09:30:23.825Z,2.20
2022-12-23T09:33:26.661Z,2.30
2022-12-23T09:36:30.045Z,1.90
2022-12-23T09:39:33.627Z,2.00
2022-12-23T09:42:51.570Z,1.20
2022-12-23T09:49:13.603Z,1.40
2022-12-23T09:52:23.273Z,1.30
2022-12-23T09:55:40.469Z,1.40
2022-12-23T09:58:53.089Z,1.80
2022-12-23T10:02:11.476Z,1.50
2022-12-23T10:05:26.871Z,1.60
2022-12-23T10:08:45.182Z,1.70
2022-12-23T10:11:54.071Z,2.00
2022-12-23T10:15:01.272Z,3.10
2022-12-23T10:18:12.478Z,1.80
2022-12-23T10:21:31.257Z,1.70
2022-12-23T10:24:38.935Z,1.50
2022-12-23T10:27:44.333Z,1.60
2022-12-23T10:34:38.692Z,1.50
2022-12-23T10:37:49.268Z,1.70
2022-12-23T10:41:09.705Z,1.70
2022-12-23T10:44:28.148Z,1.60
2022-12-23T10:48:05.126Z,2.10
2022-12-23T10:51:19.947Z,2.20
2022-12-23T10:54:34.672Z,1.40
2022-12-23T10:57:37.827Z,2.30
2022-12-23T11:00:45.641Z,2.10
2022-12-23T11:03:55.779Z,2.50
2022-12-23T11:07:26.267Z,2.90
2022-12-23T11:13:43.356Z,2.80
2022-12-23T11:16:47.191Z,3.50
2022-12-23T11:20:13.203Z,2.20
2022-12-23T11:23:31.328Z,3.20
2022-12-23T11:26:35.691Z,3.00
2022-12-23T11:29:50.183Z,3.10
2022-12-23T11:32:53.278Z,2.40
2022-12-23T11:36:08.748Z,2.10
2022-12-23T11:39:24.440Z,2.30
2022-12-23T11:42:30.356Z,1.70
2022-12-23T11:48:39.882Z,1.60
2022-12-23T11:51:45.234Z,1.80
2022-12-23T11:54:57.041Z,1.90
2022-12-23T12:01:15.785Z,1.20
2022-12-23T12:04:24.629Z,1.40
2022-12-23T12:07:29.146Z,1.00
2022-12-23T12:10:36.482Z,2.20
2022-12-23T12:13:45.574Z,2.20
2022-12-23T12:17:02.606Z,1.40
2022-12-23T12:20:20.981Z,1.80
2022-12-23T12:23:45.888Z,2.00
2022-12-23T12:26:52.907Z,1.70
2022-12-23T12:30:08.360Z,1.80
2022-12-23T12:33:19.560Z,2.50
2022-12-23T12:36:33.470Z,1.80
2022-12-23T12:39:42.474Z,2.00
2022-12-23T12:42:55.700Z,1.70
2022-12-23T12:46:21.706Z,2.00
2022-12-23T12:49:57.162Z,1.80
2022-12-23T12:53:10.363Z,2.00
2022-12-23T12:56:25.570Z,1.60
2022-12-23T12:59:33.986Z,2.00
2022-12-23T13:03:08.169Z,2.20
2022-12-23T13:06:36.652Z,2.00
2022-12-23T13:10:01.331Z,2.20
2022-12-23T13:13:23.229Z,2.30
2022-12-23T13:16:57.529Z,2.60
2022-12-23T13:20:22.127Z,3.10
2022-12-23T13:23:45.090Z,2.80
2022-12-23T13:26:59.215Z,1.90
2022-12-23T13:30:20.332Z,1.10
2022-12-23T13:33:39.312Z,1.80
2022-12-23T13:37:17.164Z,1.50
2022-12-23T13:40:51.949Z,2.20
2022-12-23T13:44:06.568Z,1.70
2022-12-23T13:47:32.223Z,2.60
2022-12-23T13:50:53.789Z,2.30
2022-12-23T13:54:25.240Z,2.30
2022-12-23T13:57:54.493Z,2.30
2022-12-23T14:01:22.264Z,1.80
2022-12-23T14:04:36.188Z,3.00
2022-12-23T14:07:56.282Z,1.30
2022-12-23T14:11:18.777Z,2.20
2022-12-23T14:14:25.236Z,2.80
2022-12-23T14:17:45.373Z,3.10
2022-12-23T14:21:02.211Z,2.70
2022-12-23T14:24:36.423Z,2.20
2022-12-23T14:28:01.569Z,2.70
2022-12-23T14:31:05.869Z,3.20
2022-12-23T14:34:18.034Z,2.00
2022-12-23T14:40:39.026Z,2.60
2022-12-23T14:43:45.764Z,1.80
2022-12-23T14:46:48.709Z,2.80
2022-12-23T14:49:51.711Z,2.80
2022-12-23T14:53:00.296Z,2.20
2022-12-23T14:56:16.924Z,2.00
2022-12-23T14:59:32.769Z,2.20
2022-12-23T15:02:39.229Z,2.70
2022-12-23T15:05:42.975Z,1.70
2022-12-23T15:08:50.554Z,3.60
2022-12-23T15:11:56.142Z,1.70
2022-12-23T15:15:03.504Z,2.10
2022-12-23T15:18:12.431Z,2.10
2022-12-23T15:21:15.295Z,1.80
2022-12-23T15:24:21.871Z,2.00
2022-12-23T15:27:28.378Z,2.30
2022-12-23T15:30:46.023Z,2.60
2022-12-23T15:34:02.795Z,2.00
2022-12-23T15:37:12.487Z,2.30
2022-12-23T15:40:38.120Z,1.80
2022-12-23T15:43:42.714Z,2.50
2022-12-23T15:46:45.658Z,2.90
2022-12-23T15:49:48.573Z,2.50
2022-12-23T15:52:54.660Z,4.70
2022-12-23T15:55:57.511Z,3.40
2022-12-23T15:59:01.916Z,2.80
2022-12-23T16:02:58.395Z,2.10
2022-12-23T16:05:44.957Z,2.00
2022-12-23T16:09:01.297Z,2.40
2022-12-23T16:12:18.765Z,1.60
2022-12-23T16:15:33.315Z,2.00
2022-12-23T16:18:47.214Z,2.60
2022-12-23T16:21:50.914Z,2.50
2022-12-23T16:25:11.304Z,3.80
2022-12-23T16:28:24.429Z,7.50
2022-12-23T16:31:28.248Z,8.70
2022-12-23T16:34:31.644Z,10.70
2022-12-23T16:37:34.403Z,9.90
2022-12-23T16:40:37.295Z,9.70
2022-12-23T16:43:43.337Z,10.80
2022-12-23T16:49:55.407Z,8.40
2022-12-23T16:52:58.212Z,11.10
2022-12-23T16:56:01.527Z,8.60
2022-12-23T16:59:04.933Z,6.90
2022-12-23T17:02:21.317Z,6.80
2022-12-23T17:05:24.412Z,5.50
2022-12-23T17:08:27.887Z,7.10
2022-12-23T17:11:39.887Z,7.20
2022-12-23T17:14:42.788Z,8.10
2022-12-23T17:17:46.019Z,7.80
2022-12-23T17:20:49.356Z,8.50
2022-12-23T17:23:56.811Z,8.10
2022-12-23T17:26:59.682Z,20.30
2022-12-23T17:30:02.461Z,21.40
2022-12-23T17:33:05.441Z,13.90
2022-12-23T17:36:11.170Z,10.60
2022-12-23T17:39:14.237Z,12.60
2022-12-23T17:42:25.288Z,9.80
2022-12-23T17:45:30.739Z,10.40
2022-12-23T17:48:33.576Z,8.10
2022-12-23T17:51:38.474Z,6.30
2022-12-23T17:54:42.197Z,7.60
2022-12-23T17:57:45.159Z,7.10
2022-12-23T18:00:48.001Z,6.10
2022-12-23T18:03:51.509Z,5.20
2022-12-23T18:06:54.310Z,6.60
2022-12-23T18:09:57.171Z,9.30
2022-12-23T18:13:02.922Z,6.10
2022-12-23T18:16:05.803Z,5.50
2022-12-23T18:19:19.946Z,4.10
2022-12-23T18:22:24.802Z,9.20
2022-12-23T18:25:27.761Z,5.30
2022-12-23T18:28:30.791Z,6.40
2022-12-23T18:31:34.306Z,5.70
2022-12-23T18:34:41.434Z,6.00
2022-12-23T18:37:44.454Z,9.40
2022-12-23T18:40:49.752Z,7.70
2022-12-23T18:43:53.422Z,9.20
2022-12-23T18:46:56.290Z,10.90
2022-12-23T18:49:59.206Z,8.90
2022-12-23T18:53:02.086Z,8.20
2022-12-23T18:56:04.978Z,10.60
2022-12-23T18:59:16.165Z,9.20
2022-12-23T19:02:19.114Z,9.50
2022-12-23T19:05:34.372Z,11.00
2022-12-23T19:08:37.840Z,5.60
2022-12-23T19:11:40.638Z,6.30
2022-12-23T19:14:43.399Z,5.20
2022-12-23T19:17:47.139Z,4.20
2022-12-23T19:20:50.114Z,4.30
2022-12-23T19:23:52.833Z,4.60
2022-12-23T19:26:55.776Z,5.00
2022-12-23T19:29:59.193Z,4.20
2022-12-23T19:33:02.054Z,4.50
2022-12-23T19:36:17.064Z,3.20
2022-12-23T19:39:21.971Z,3.20
2022-12-23T19:42:25.086Z,4.20
2022-12-23T19:45:28.163Z,4.40
2022-12-23T19:48:31.285Z,4.20
2022-12-23T19:51:34.173Z,3.20
2022-12-23T19:54:36.984Z,2.80
2022-12-23T19:57:39.935Z,3.80
2022-12-23T20:00:42.716Z,4.30
2022-12-23T20:03:47.216Z,4.40
2022-12-23T20:06:50.081Z,5.10
2022-12-23T20:09:53.278Z,6.60
2022-12-23T20:12:56.172Z,4.70
2022-12-23T20:15:59.293Z,3.60
2022-12-23T20:19:03.203Z,3.30
2022-12-23T20:22:06.016Z,4.20
2022-12-23T20:25:09.158Z,4.10
2022-12-23T20:28:12.241Z,3.50
2022-12-23T20:31:19.355Z,3.70
2022-12-23T20:34:22.220Z,2.40
2022-12-23T20:37:25.013Z,4.60
2022-12-23T20:40:28.058Z,3.30
2022-12-23T20:43:31.394Z,2.10
2022-12-23T20:46:34.256Z,3.70
2022-12-23T20:49:37.248Z,3.50
2022-12-23T20:52:40.176Z,4.40
2022-12-23T20:55:43.052Z,3.90
2022-12-23T20:58:54.930Z,3.80
2022-12-23T21:01:59.506Z,3.70
2022-12-23T21:05:02.664Z,3.50
2022-12-23T21:08:06.219Z,4.90
2022-12-23T21:11:09.233Z,4.70
2022-12-23T21:14:13.502Z,3.60
2022-12-23T21:17:16.411Z,3.90
2022-12-23T21:20:19.245Z,3.30
2022-12-23T21:23:22.000Z,4.10
2022-12-23T21:26:28.293Z,3.60
2022-12-23T21:32:33.910Z,3.70
2022-12-23T21:35:36.815Z,2.60
2022-12-23T21:38:42.300Z,3.40
2022-12-23T21:41:46.120Z,2.90
2022-12-23T21:44:49.393Z,2.20
2022-12-23T21:47:52.383Z,2.60
2022-12-23T21:50:55.635Z,3.30
2022-12-23T21:53:59.880Z,2.90
2022-12-23T21:57:02.765Z,2.10
2022-12-23T22:00:06.452Z,2.80
2022-12-23T22:03:09.408Z,2.80
2022-12-23T22:06:26.459Z,3.70
2022-12-23T22:09:29.908Z,2.50
2022-12-23T22:12:32.819Z,2.70
2022-12-23T22:15:40.651Z,3.10
2022-12-23T22:18:44.304Z,2.90
2022-12-23T22:21:47.069Z,2.90
2022-12-23T22:24:49.938Z,3.00
2022-12-23T22:27:52.748Z,3.80
2022-12-23T22:31:01.709Z,2.80
2022-12-23T22:34:06.356Z,2.10
2022-12-23T22:37:09.217Z,2.60
2022-12-23T22:40:12.342Z,2.30
2022-12-23T22:43:15.484Z,2.60
2022-12-23T22:46:18.619Z,2.80
2022-12-23T22:49:21.700Z,3.00
2022-12-23T22:52:24.517Z,2.50
2022-12-23T22:55:27.450Z,1.70
2022-12-23T22:58:32.455Z,2.10
2022-12-23T23:01:36.493Z,2.80
2022-12-23T23:04:39.448Z,1.80
2022-12-23T23:07:43.340Z,2.50
2022-12-23T23:10:46.241Z,2.10
2022-12-23T23:13:49.223Z,1.70
2022-12-23T23:16:54.088Z,1.60
2022-12-23T23:19:57.023Z,1.50
2022-12-23T23:22:59.849Z,2.40
2022-12-23T23:26:03.751Z,1.30
2022-12-23T23:29:06.592Z,2.00
2022-12-23T23:32:09.817Z,1.40
2022-12-23T23:35:12.908Z,2.10
2022-12-23T23:38:15.849Z,2.10
2022-12-23T23:41:22.934Z,1.80
2022-12-23T23:44:26.698Z,3.20
2022-12-23T23:47:34.492Z,0.90
2022-12-23T23:50:37.702Z,1.40
2022-12-23T23:53:40.788Z,2.60
2022-12-23T23:56:43.660Z,1.80
2022-12-23T23:59:46.516Z,1.60
